PWSweather.com
Personal Weather Stations
Station Observations
UISISLE1
Newport, Isle ofWight, ISLE OF WIGHT PO30 2JX

NewportIsle ofWight, ISLE OF WIGHT PO30 2JX

Lat: 50.72, Lon: -1.27

Elevation: 45

Station Type: Davis Vantage Pro Plus

http://www.isleofwightweather.co.uk

Latest ConditionsUpdated 6:45:00 PM GMT Sunday, Jan 26, 2020
Currently Today's Max Today's Min Today's Average
Temperature 49.1°F9.5°C 49.7°F9.8°C 46.1°F7.8°C 48.0°F8.9°C
Dew Point 48.0°F8.9°C 48.3°F9.1°C 44.4°F6.9°C 46.4°F8.0°C
Winds 2.3 mph WSW3.7 kmh WSW 5.8 mph -9.3 kmh - - 2.4 mph 3.9 kmh
Wind Gusts 3.5 mph5.6 kmh 11.5 mph18.5 kmh - -
Humidity 96% 96% 93% 94%
Pressure 29.73 in1006.8 mb 29.96 in1014.6 mb 29.73 in1006.8 mb -
Precipitation - 0.24 in6.1 mm - -
Hour Temp Dew Point Humidity Winds Wind Gusts Pressure Precip Precip Rate Daily Precip Total
06:45 PM 49.1°F9.5°C 48.0°F8.9°C 96% 2.3 mph WSW3.7 kmh WSW 3.5 mph5.6 kmh 29.73 in1006.8 mb - 0.00 in0.0 mm 0.24 in6.1 mm
06:30 PM 49.3°F9.6°C 48.2°F9.0°C 96% 4.6 mph SW7.4 kmh SW 10.4 mph16.7 kmh 29.73 in1006.8 mb - 0.01 in0.3 mm 0.24 in6.1 mm
06:15 PM 49.4°F9.7°C 48.3°F9.1°C 96% 4.6 mph WSW7.4 kmh WSW 9.2 mph14.8 kmh 29.73 in1006.8 mb - 0.02 in0.5 mm 0.24 in6.1 mm
06:00 PM 49.3°F9.6°C 48.2°F9.0°C 96% 4.6 mph SW7.4 kmh SW 8.1 mph13.0 kmh 29.73 in1006.8 mb - 0.02 in0.5 mm 0.24 in6.1 mm
05:45 PM 49.2°F9.6°C 48.1°F8.9°C 96% 3.5 mph SW5.6 kmh SW 5.8 mph9.3 kmh 29.73 in1006.8 mb - 0.05 in1.3 mm 0.24 in6.1 mm
05:30 PM 49.2°F9.6°C 48.1°F8.9°C 96% 2.3 mph SW3.7 kmh SW 5.8 mph9.3 kmh 29.73 in1006.8 mb - 0.06 in1.5 mm 0.24 in6.1 mm
05:15 PM 49.1°F9.5°C 48.0°F8.9°C 96% 3.5 mph WSW5.6 kmh WSW 4.6 mph7.4 kmh 29.73 in1006.8 mb - 0.08 in2.0 mm 0.23 in5.8 mm
05:00 PM 49.2°F9.6°C 48.1°F8.9°C 96% 3.5 mph SW5.6 kmh SW 5.8 mph9.3 kmh 29.73 in1006.8 mb - 0.09 in2.3 mm 0.23 in5.8 mm
04:45 PM 49.2°F9.6°C 47.8°F8.8°C 95% 4.6 mph WSW7.4 kmh WSW 5.8 mph9.3 kmh 29.74 in1007.1 mb - 0.06 in1.5 mm 0.20 in5.1 mm
04:30 PM 49.2°F9.6°C 47.8°F8.8°C 95% 3.5 mph SW5.6 kmh SW 11.5 mph18.5 kmh 29.74 in1007.1 mb - 0.06 in1.5 mm 0.18 in4.6 mm
04:15 PM 49.1°F9.5°C 47.7°F8.7°C 95% 3.5 mph WSW5.6 kmh WSW 5.8 mph9.3 kmh 29.74 in1007.1 mb - 0.05 in1.3 mm 0.15 in3.8 mm
04:00 PM 49.1°F9.5°C 47.7°F8.7°C 95% 3.5 mph WSW5.6 kmh WSW 4.6 mph7.4 kmh 29.75 in1007.5 mb - 0.07 in1.8 mm 0.14 in3.6 mm
03:45 PM 49.1°F9.5°C 47.7°F8.7°C 95% 3.5 mph W5.6 kmh W 6.9 mph11.1 kmh 29.75 in1007.5 mb - 0.08 in2.0 mm 0.13 in3.3 mm
03:30 PM 49.1°F9.5°C 47.4°F8.6°C 94% 3.5 mph SW5.6 kmh SW 5.8 mph9.3 kmh 29.75 in1007.5 mb - 0.09 in2.3 mm 0.13 in3.3 mm
03:15 PM 49.2°F9.6°C 47.5°F8.6°C 94% 4.6 mph WSW7.4 kmh WSW 5.8 mph9.3 kmh 29.76 in1007.8 mb - 0.08 in2.0 mm 0.10 in2.5 mm
03:00 PM 49.3°F9.6°C 47.7°F8.7°C 94% 3.5 mph SW5.6 kmh SW 11.5 mph18.5 kmh 29.77 in1008.1 mb - 0.06 in1.5 mm 0.07 in1.8 mm
02:45 PM 49.4°F9.7°C 47.7°F8.7°C 94% 2.3 mph WSW3.7 kmh WSW 4.6 mph7.4 kmh 29.77 in1008.1 mb - 0.05 in1.3 mm 0.06 in1.5 mm
02:30 PM 49.5°F9.7°C 47.8°F8.8°C 94% 3.5 mph WSW5.6 kmh WSW 6.9 mph11.1 kmh 29.78 in1008.5 mb - 0.03 in0.8 mm 0.04 in1.0 mm
02:15 PM 49.6°F9.8°C 47.7°F8.7°C 93% 3.5 mph SSW5.6 kmh SSW 4.6 mph7.4 kmh 29.79 in1008.8 mb - 0.02 in0.5 mm 0.02 in0.5 mm
02:00 PM 49.6°F9.8°C 47.7°F8.7°C 93% 2.3 mph WSW3.7 kmh WSW 8.1 mph13.0 kmh 29.79 in1008.8 mb - 0.01 in0.3 mm 0.02 in0.5 mm
01:45 PM 49.7°F9.8°C 47.8°F8.8°C 93% 3.5 mph SSW5.6 kmh SSW 8.1 mph13.0 kmh 29.80 in1009.1 mb - 0.00 in0.0 mm 0.01 in0.3 mm
01:30 PM 49.6°F9.8°C 47.7°F8.7°C 93% 4.6 mph SW7.4 kmh SW 5.8 mph9.3 kmh 29.80 in1009.1 mb - 0.00 in0.0 mm 0.01 in0.3 mm
01:15 PM 49.5°F9.7°C 47.6°F8.7°C 93% 3.5 mph SW5.6 kmh SW 5.8 mph9.3 kmh 29.81 in1009.5 mb - 0.00 in0.0 mm 0.01 in0.3 mm
01:00 PM 49.4°F9.7°C 47.5°F8.6°C 93% 2.3 mph SW3.7 kmh SW 3.5 mph5.6 kmh 29.82 in1009.8 mb - 0.00 in0.0 mm 0.01 in0.3 mm
12:45 PM 49.4°F9.7°C 47.5°F8.6°C 93% 3.5 mph SW5.6 kmh SW 6.9 mph11.1 kmh 29.82 in1009.8 mb - 0.00 in0.0 mm 0.01 in0.3 mm
12:30 PM 49.3°F9.6°C 47.4°F8.6°C 93% 2.3 mph S3.7 kmh S 9.2 mph14.8 kmh 29.83 in1010.2 mb - 0.00 in0.0 mm 0.01 in0.3 mm
12:15 PM 49.3°F9.6°C 47.4°F8.6°C 93% 4.6 mph WSW7.4 kmh WSW 5.8 mph9.3 kmh 29.84 in1010.5 mb - 0.00 in0.0 mm 0.01 in0.3 mm
12:00 PM 49.4°F9.7°C 47.5°F8.6°C 93% 3.5 mph SW5.6 kmh SW 8.1 mph13.0 kmh 29.84 in1010.5 mb - 0.00 in0.0 mm 0.01 in0.3 mm
11:45 AM 49.6°F9.8°C 47.7°F8.7°C 93% 1.2 mph SW1.9 kmh SW 3.5 mph5.6 kmh 29.84 in1010.5 mb - 0.00 in0.0 mm 0.01 in0.3 mm
11:30 AM 49.7°F9.8°C 47.8°F8.8°C 93% 2.3 mph SW3.7 kmh SW 3.5 mph5.6 kmh 29.85 in1010.8 mb - 0.00 in0.0 mm 0.01 in0.3 mm
11:15 AM 49.7°F9.8°C 48.0°F8.9°C 94% 2.3 mph SSW3.7 kmh SSW 3.5 mph5.6 kmh 29.85 in1010.8 mb - 0.00 in0.0 mm 0.01 in0.3 mm
11:00 AM 49.6°F9.8°C 47.9°F8.8°C 94% 5.8 mph WSW9.3 kmh WSW 8.1 mph13.0 kmh 29.86 in1011.2 mb - 0.00 in0.0 mm 0.01 in0.3 mm
10:30 AM 49.0°F9.4°C 47.6°F8.7°C 95% 1.2 mph W1.9 kmh W 3.5 mph5.6 kmh 29.86 in1011.2 mb - 0.00 in0.0 mm 0.01 in0.3 mm
10:15 AM 48.8°F9.3°C 47.4°F8.6°C 95% 2.3 mph SW3.7 kmh SW 5.8 mph9.3 kmh 29.87 in1011.5 mb - 0.00 in0.0 mm 0.01 in0.3 mm
10:00 AM 48.6°F9.2°C 47.2°F8.4°C 95% 2.3 mph WSW3.7 kmh WSW 8.1 mph13.0 kmh 29.87 in1011.5 mb - 0.00 in0.0 mm 0.01 in0.3 mm
09:45 AM 48.4°F9.1°C 47.0°F8.3°C 95% 3.5 mph SSW5.6 kmh SSW 4.6 mph7.4 kmh 29.88 in1011.9 mb - 0.00 in0.0 mm 0.01 in0.3 mm
09:30 AM 48.3°F9.1°C 46.9°F8.3°C 95% 3.5 mph SW5.6 kmh SW 4.6 mph7.4 kmh 29.88 in1011.9 mb - 0.00 in0.0 mm 0.01 in0.3 mm
09:15 AM 48.1°F8.9°C 46.7°F8.2°C 95% 4.6 mph SW7.4 kmh SW 6.9 mph11.1 kmh 29.88 in1011.9 mb - 0.01 in0.3 mm 0.01 in0.3 mm
09:00 AM 47.8°F8.8°C 46.4°F8.0°C 95% 1.2 mph WSW1.9 kmh WSW 4.6 mph7.4 kmh 29.87 in1011.5 mb - 0.01 in0.3 mm 0.01 in0.3 mm
08:45 AM 47.7°F8.7°C 46.3°F7.9°C 95% 1.2 mph WSW1.9 kmh WSW 2.3 mph3.7 kmh 29.88 in1011.9 mb - 0.01 in0.3 mm 0.01 in0.3 mm
08:30 AM 47.5°F8.6°C 46.1°F7.8°C 95% 2.3 mph SW3.7 kmh SW 4.6 mph7.4 kmh 29.88 in1011.9 mb - 0.01 in0.3 mm 0.01 in0.3 mm
08:15 AM 47.4°F8.6°C 46.0°F7.8°C 95% 2.3 mph SSW3.7 kmh SSW 4.6 mph7.4 kmh 29.88 in1011.9 mb - 0.01 in0.3 mm 0.01 in0.3 mm
08:00 AM 47.3°F8.5°C 45.9°F7.7°C 95% 2.3 mph SW3.7 kmh SW 3.5 mph5.6 kmh 29.88 in1011.9 mb - 0.00 in0.0 mm 0.00 in0.0 mm
07:45 AM 47.2°F8.4°C 45.8°F7.7°C 95% 2.3 mph W3.7 kmh W 3.5 mph5.6 kmh 29.88 in1011.9 mb - 0.00 in0.0 mm 0.00 in0.0 mm
07:30 AM 47.3°F8.5°C 45.7°F7.6°C 94% 2.3 mph NNE3.7 kmh NNE 4.6 mph7.4 kmh 29.88 in1011.9 mb - 0.00 in0.0 mm 0.00 in0.0 mm
07:15 AM 47.3°F8.5°C 45.7°F7.6°C 94% 2.3 mph NE3.7 kmh NE 5.8 mph9.3 kmh 29.88 in1011.9 mb - 0.00 in0.0 mm 0.00 in0.0 mm
07:00 AM 47.2°F8.4°C 45.6°F7.6°C 94% 1.2 mph S1.9 kmh S 3.5 mph5.6 kmh 29.88 in1011.9 mb - 0.00 in0.0 mm 0.00 in0.0 mm
06:45 AM 47.1°F8.4°C 45.5°F7.5°C 94% 1.2 mph WSW1.9 kmh WSW 3.5 mph5.6 kmh 29.88 in1011.9 mb - 0.00 in0.0 mm 0.00 in0.0 mm
06:15 AM 46.9°F8.3°C 45.3°F7.4°C 94% 1.2 mph SSW1.9 kmh SSW 3.5 mph5.6 kmh 29.88 in1011.9 mb - 0.00 in0.0 mm 0.00 in0.0 mm
06:00 AM 47.0°F8.3°C 45.4°F7.4°C 94% 1.2 mph WSW1.9 kmh WSW 3.5 mph5.6 kmh 29.89 in1012.2 mb - 0.00 in0.0 mm 0.00 in0.0 mm
05:45 AM 46.9°F8.3°C 45.3°F7.4°C 94% 2.3 mph SW3.7 kmh SW 3.5 mph5.6 kmh 29.89 in1012.2 mb - 0.00 in0.0 mm 0.00 in0.0 mm
05:30 AM 46.7°F8.2°C 45.1°F7.3°C 94% 2.3 mph WSW3.7 kmh WSW 3.5 mph5.6 kmh 29.89 in1012.2 mb - 0.00 in0.0 mm 0.00 in0.0 mm
05:15 AM 46.6°F8.1°C 44.9°F7.2°C 94% 2.3 mph SW3.7 kmh SW 4.6 mph7.4 kmh 29.90 in1012.5 mb - 0.00 in0.0 mm 0.00 in0.0 mm
05:00 AM 46.5°F8.1°C 44.9°F7.2°C 94% 2.3 mph WSW3.7 kmh WSW 3.5 mph5.6 kmh 29.90 in1012.5 mb - 0.00 in0.0 mm 0.00 in0.0 mm
04:45 AM 46.3°F7.9°C 44.7°F7.1°C 94% 1.2 mph SE1.9 kmh SE 3.5 mph5.6 kmh 29.89 in1012.2 mb - 0.00 in0.0 mm 0.00 in0.0 mm
04:30 AM 46.3°F7.9°C 44.7°F7.1°C 94% 1.2 mph ESE1.9 kmh ESE 3.5 mph5.6 kmh 29.90 in1012.5 mb - 0.00 in0.0 mm 0.00 in0.0 mm
04:15 AM 46.2°F7.9°C 44.6°F7.0°C 94% 1.2 mph SW1.9 kmh SW 2.3 mph3.7 kmh 29.90 in1012.5 mb - 0.00 in0.0 mm 0.00 in0.0 mm
04:00 AM 46.1°F7.8°C 44.5°F6.9°C 94% 2.3 mph SE3.7 kmh SE 2.3 mph3.7 kmh 29.90 in1012.5 mb - 0.00 in0.0 mm 0.00 in0.0 mm
03:45 AM 46.1°F7.8°C 44.5°F6.9°C 94% 1.2 mph N1.9 kmh N 2.3 mph3.7 kmh 29.90 in1012.5 mb - 0.00 in0.0 mm 0.00 in0.0 mm
03:30 AM 46.1°F7.8°C 44.5°F6.9°C 94% 1.2 mph SE1.9 kmh SE 3.5 mph5.6 kmh 29.91 in1012.9 mb - 0.00 in0.0 mm 0.00 in0.0 mm
03:15 AM 46.1°F7.8°C 44.5°F6.9°C 94% Calm Calm 3.5 mph5.6 kmh 29.91 in1012.9 mb - 0.00 in0.0 mm 0.00 in0.0 mm
03:00 AM 46.1°F7.8°C 44.5°F6.9°C 94% 1.2 mph SSW1.9 kmh SSW 2.3 mph3.7 kmh 29.92 in1013.2 mb - 0.00 in0.0 mm 0.00 in0.0 mm
02:45 AM 46.1°F7.8°C 44.4°F6.9°C 94% Calm Calm 2.3 mph3.7 kmh 29.92 in1013.2 mb - 0.00 in0.0 mm 0.00 in0.0 mm
02:30 AM 46.1°F7.8°C 44.5°F6.9°C 94% Calm Calm 1.2 mph1.9 kmh 29.92 in1013.2 mb - 0.00 in0.0 mm 0.00 in0.0 mm
02:15 AM 46.2°F7.9°C 44.6°F7.0°C 94% 1.2 mph WSW1.9 kmh WSW 1.2 mph1.9 kmh 29.93 in1013.5 mb - 0.00 in0.0 mm 0.00 in0.0 mm
02:00 AM 46.2°F7.9°C 44.6°F7.0°C 94% Calm Calm 1.2 mph1.9 kmh 29.93 in1013.5 mb - 0.00 in0.0 mm 0.00 in0.0 mm
01:45 AM 46.3°F7.9°C 44.9°F7.2°C 95% 1.2 mph SW1.9 kmh SW 2.3 mph3.7 kmh 29.93 in1013.5 mb - 0.00 in0.0 mm 0.00 in0.0 mm
01:30 AM 46.4°F8.0°C 45.0°F7.2°C 95% 1.2 mph S1.9 kmh S 2.3 mph3.7 kmh 29.93 in1013.5 mb - 0.00 in0.0 mm 0.00 in0.0 mm
01:15 AM 46.4°F8.0°C 45.0°F7.2°C 95% 1.2 mph E1.9 kmh E 1.2 mph1.9 kmh 29.94 in1013.9 mb - 0.00 in0.0 mm 0.00 in0.0 mm
01:00 AM 46.4°F8.0°C 45.0°F7.2°C 95% 1.2 mph SW1.9 kmh SW 3.5 mph5.6 kmh 29.94 in1013.9 mb - 0.00 in0.0 mm 0.00 in0.0 mm
12:45 AM 46.3°F7.9°C 44.9°F7.2°C 95% 1.2 mph SSW1.9 kmh SSW 2.3 mph3.7 kmh 29.95 in1014.2 mb - 0.00 in0.0 mm 0.00 in0.0 mm
12:30 AM 46.2°F7.9°C 44.8°F7.1°C 95% 2.3 mph WSW3.7 kmh WSW 3.5 mph5.6 kmh 29.95 in1014.2 mb - 0.00 in0.0 mm 0.00 in0.0 mm
12:15 AM 46.2°F7.9°C 44.8°F7.1°C 95% 1.2 mph SSW1.9 kmh SSW 3.5 mph5.6 kmh 29.95 in1014.2 mb - 0.00 in0.0 mm 0.00 in0.0 mm
12:00 AM 46.2°F7.9°C 44.8°F7.1°C 95% Calm Calm 1.2 mph1.9 kmh 29.96 in1014.6 mb - 0.00 in0.0 mm 0.00 in0.0 mm